sensor_id;sensor_type;location;lat;lon;timestamp;temperature;humidity
42037;DHT22;30340;52.004;5.908;2022-10-15T00:02:07;14.00;90.50
42037;DHT22;30340;52.004;5.908;2022-10-15T00:04:33;14.00;90.50
42037;DHT22;30340;52.004;5.908;2022-10-15T00:06:59;14.00;90.60
42037;DHT22;30340;52.004;5.908;2022-10-15T00:09:24;14.00;90.60
42037;DHT22;30340;52.004;5.908;2022-10-15T00:11:50;13.90;90.50
42037;DHT22;30340;52.004;5.908;2022-10-15T00:14:16;13.90;90.50
42037;DHT22;30340;52.004;5.908;2022-10-15T00:16:42;13.90;90.50
42037;DHT22;30340;52.004;5.908;2022-10-15T00:19:08;13.90;90.50
42037;DHT22;30340;52.004;5.908;2022-10-15T00:21:34;13.80;90.40
42037;DHT22;30340;52.004;5.908;2022-10-15T00:24:00;13.80;90.40
42037;DHT22;30340;52.004;5.908;2022-10-15T00:26:27;13.80;90.40
42037;DHT22;30340;52.004;5.908;2022-10-15T00:28:55;13.80;90.40
42037;DHT22;30340;52.004;5.908;2022-10-15T00:31:21;13.70;90.40
42037;DHT22;30340;52.004;5.908;2022-10-15T00:33:49;13.70;90.40
42037;DHT22;30340;52.004;5.908;2022-10-15T00:36:19;13.60;90.30
42037;DHT22;30340;52.004;5.908;2022-10-15T00:38:45;13.60;90.40
42037;DHT22;30340;52.004;5.908;2022-10-15T00:41:17;13.50;90.40
42037;DHT22;30340;52.004;5.908;2022-10-15T00:43:46;13.60;90.50
42037;DHT22;30340;52.004;5.908;2022-10-15T00:46:29;13.50;90.50
42037;DHT22;30340;52.004;5.908;2022-10-15T00:48:59;13.60;90.50
42037;DHT22;30340;52.004;5.908;2022-10-15T00:51:30;13.60;90.40
42037;DHT22;30340;52.004;5.908;2022-10-15T00:53:58;13.60;90.40
42037;DHT22;30340;52.004;5.908;2022-10-15T00:56:25;13.50;90.40
42037;DHT22;30340;52.004;5.908;2022-10-15T00:58:53;13.50;90.40
42037;DHT22;30340;52.004;5.908;2022-10-15T01:01:19;13.50;90.40
42037;DHT22;30340;52.004;5.908;2022-10-15T01:03:45;13.50;90.40
42037;DHT22;30340;52.004;5.908;2022-10-15T01:06:11;13.50;90.50
42037;DHT22;30340;52.004;5.908;2022-10-15T01:08:36;13.40;90.50
42037;DHT22;30340;52.004;5.908;2022-10-15T01:11:19;13.40;90.50
42037;DHT22;30340;52.004;5.908;2022-10-15T01:16:31;13.40;90.50
42037;DHT22;30340;52.004;5.908;2022-10-15T01:19:07;13.30;90.50
42037;DHT22;30340;52.004;5.908;2022-10-15T01:21:53;13.30;90.50
42037;DHT22;30340;52.004;5.908;2022-10-15T01:33:08;13.30;90.50
42037;DHT22;30340;52.004;5.908;2022-10-15T01:41:17;13.40;90.50
42037;DHT22;30340;52.004;5.908;2022-10-15T01:43:47;13.40;90.50
42037;DHT22;30340;52.004;5.908;2022-10-15T01:46:19;13.40;90.40
42037;DHT22;30340;52.004;5.908;2022-10-15T01:48:48;13.40;90.40
42037;DHT22;30340;52.004;5.908;2022-10-15T01:51:17;13.50;90.50
42037;DHT22;30340;52.004;5.908;2022-10-15T01:53:44;13.50;90.50
42037;DHT22;30340;52.004;5.908;2022-10-15T01:56:14;13.50;90.50
42037;DHT22;30340;52.004;5.908;2022-10-15T01:58:43;13.50;90.50
42037;DHT22;30340;52.004;5.908;2022-10-15T02:01:09;13.50;90.50
42037;DHT22;30340;52.004;5.908;2022-10-15T02:03:44;13.60;90.40
42037;DHT22;30340;52.004;5.908;2022-10-15T02:06:14;13.60;90.40
42037;DHT22;30340;52.004;5.908;2022-10-15T02:11:27;13.60;90.30
42037;DHT22;30340;52.004;5.908;2022-10-15T02:14:03;13.60;90.30
42037;DHT22;30340;52.004;5.908;2022-10-15T02:16:37;13.60;90.30
42037;DHT22;30340;52.004;5.908;2022-10-15T02:19:29;13.60;90.30
42037;DHT22;30340;52.004;5.908;2022-10-15T02:22:10;13.60;90.30
42037;DHT22;30340;52.004;5.908;2022-10-15T02:24:46;13.60;90.40
42037;DHT22;30340;52.004;5.908;2022-10-15T02:27:14;13.60;90.30
42037;DHT22;30340;52.004;5.908;2022-10-15T02:29:41;13.60;90.40
42037;DHT22;30340;52.004;5.908;2022-10-15T02:32:10;13.60;90.40
42037;DHT22;30340;52.004;5.908;2022-10-15T02:34:36;13.50;90.40
42037;DHT22;30340;52.004;5.908;2022-10-15T02:37:04;13.50;90.50
42037;DHT22;30340;52.004;5.908;2022-10-15T02:39:30;13.50;90.60
42037;DHT22;30340;52.004;5.908;2022-10-15T02:41:56;13.50;90.50
42037;DHT22;30340;52.004;5.908;2022-10-15T02:44:22;13.50;90.50
42037;DHT22;30340;52.004;5.908;2022-10-15T02:46:48;13.40;90.50
42037;DHT22;30340;52.004;5.908;2022-10-15T02:49:13;13.50;90.60
42037;DHT22;30340;52.004;5.908;2022-10-15T02:51:39;13.50;90.50
42037;DHT22;30340;52.004;5.908;2022-10-15T02:54:06;13.50;90.60
42037;DHT22;30340;52.004;5.908;2022-10-15T02:56:32;13.50;90.60
42037;DHT22;30340;52.004;5.908;2022-10-15T02:58:57;13.50;90.60
42037;DHT22;30340;52.004;5.908;2022-10-15T03:01:23;13.50;90.80
42037;DHT22;30340;52.004;5.908;2022-10-15T03:03:48;13.60;90.50
42037;DHT22;30340;52.004;5.908;2022-10-15T03:06:14;13.50;90.50
42037;DHT22;30340;52.004;5.908;2022-10-15T03:08:40;13.60;90.50
42037;DHT22;30340;52.004;5.908;2022-10-15T03:11:07;13.50;90.50
42037;DHT22;30340;52.004;5.908;2022-10-15T03:13:37;13.50;90.40
42037;DHT22;30340;52.004;5.908;2022-10-15T03:16:07;13.50;90.50
42037;DHT22;30340;52.004;5.908;2022-10-15T03:18:33;13.50;90.50
42037;DHT22;30340;52.004;5.908;2022-10-15T03:20:59;13.60;90.40
42037;DHT22;30340;52.004;5.908;2022-10-15T03:23:26;13.50;90.40
42037;DHT22;30340;52.004;5.908;2022-10-15T03:25:51;13.50;90.50
42037;DHT22;30340;52.004;5.908;2022-10-15T03:28:19;13.50;90.40
42037;DHT22;30340;52.004;5.908;2022-10-15T03:30:45;13.50;90.40
42037;DHT22;30340;52.004;5.908;2022-10-15T03:33:10;13.50;90.40
42037;DHT22;30340;52.004;5.908;2022-10-15T03:35:36;13.60;90.50
42037;DHT22;30340;52.004;5.908;2022-10-15T03:38:02;13.60;90.40
42037;DHT22;30340;52.004;5.908;2022-10-15T03:40:28;13.60;90.40
42037;DHT22;30340;52.004;5.908;2022-10-15T03:42:53;13.60;90.30
42037;DHT22;30340;52.004;5.908;2022-10-15T03:45:21;13.60;90.30
42037;DHT22;30340;52.004;5.908;2022-10-15T03:47:47;13.60;90.30
42037;DHT22;30340;52.004;5.908;2022-10-15T03:50:13;13.60;90.30
42037;DHT22;30340;52.004;5.908;2022-10-15T03:52:39;13.60;90.30
42037;DHT22;30340;52.004;5.908;2022-10-15T03:55:05;13.60;90.30
42037;DHT22;30340;52.004;5.908;2022-10-15T03:57:31;13.60;90.30
42037;DHT22;30340;52.004;5.908;2022-10-15T03:59:57;13.60;90.30
42037;DHT22;30340;52.004;5.908;2022-10-15T04:02:22;13.70;90.30
42037;DHT22;30340;52.004;5.908;2022-10-15T04:04:51;13.70;90.20
42037;DHT22;30340;52.004;5.908;2022-10-15T04:07:18;13.70;90.30
42037;DHT22;30340;52.004;5.908;2022-10-15T04:09:43;13.70;90.20
42037;DHT22;30340;52.004;5.908;2022-10-15T04:12:09;13.70;90.20
42037;DHT22;30340;52.004;5.908;2022-10-15T04:14:35;13.60;90.20
42037;DHT22;30340;52.004;5.908;2022-10-15T04:17:00;13.60;90.20
42037;DHT22;30340;52.004;5.908;2022-10-15T04:19:26;13.60;90.30
42037;DHT22;30340;52.004;5.908;2022-10-15T04:21:51;13.70;90.30
42037;DHT22;30340;52.004;5.908;2022-10-15T04:24:17;13.70;90.20
42037;DHT22;30340;52.004;5.908;2022-10-15T04:26:42;13.60;90.20
42037;DHT22;30340;52.004;5.908;2022-10-15T04:29:08;13.60;90.30
42037;DHT22;30340;52.004;5.908;2022-10-15T04:31:33;13.60;90.40
42037;DHT22;30340;52.004;5.908;2022-10-15T04:33:59;13.60;90.30
42037;DHT22;30340;52.004;5.908;2022-10-15T04:36:25;13.60;90.40
42037;DHT22;30340;52.004;5.908;2022-10-15T04:38:51;13.60;90.40
42037;DHT22;30340;52.004;5.908;2022-10-15T04:41:17;13.60;90.40
42037;DHT22;30340;52.004;5.908;2022-10-15T04:43:42;13.60;90.40
42037;DHT22;30340;52.004;5.908;2022-10-15T04:46:08;13.60;90.40
42037;DHT22;30340;52.004;5.908;2022-10-15T04:48:35;13.60;90.40
42037;DHT22;30340;52.004;5.908;2022-10-15T04:51:10;13.60;90.50
42037;DHT22;30340;52.004;5.908;2022-10-15T04:53:36;13.70;90.50
42037;DHT22;30340;52.004;5.908;2022-10-15T04:56:04;13.60;90.40
42037;DHT22;30340;52.004;5.908;2022-10-15T04:58:31;13.70;90.50
42037;DHT22;30340;52.004;5.908;2022-10-15T05:01:08;13.70;90.50
42037;DHT22;30340;52.004;5.908;2022-10-15T05:03:37;13.70;90.50
42037;DHT22;30340;52.004;5.908;2022-10-15T05:06:05;13.80;90.50
42037;DHT22;30340;52.004;5.908;2022-10-15T05:08:32;13.80;90.50
42037;DHT22;30340;52.004;5.908;2022-10-15T05:11:06;13.70;90.50
42037;DHT22;30340;52.004;5.908;2022-10-15T05:13:33;13.80;90.60
42037;DHT22;30340;52.004;5.908;2022-10-15T05:16:15;13.80;90.50
42037;DHT22;30340;52.004;5.908;2022-10-15T05:18:42;13.80;90.60
42037;DHT22;30340;52.004;5.908;2022-10-15T05:21:09;13.80;90.60
42037;DHT22;30340;52.004;5.908;2022-10-15T05:23:35;13.80;90.60
42037;DHT22;30340;52.004;5.908;2022-10-15T05:26:10;13.80;90.60
42037;DHT22;30340;52.004;5.908;2022-10-15T05:28:36;13.80;90.60
42037;DHT22;30340;52.004;5.908;2022-10-15T05:31:13;13.80;90.70
42037;DHT22;30340;52.004;5.908;2022-10-15T05:33:39;13.80;90.70
42037;DHT22;30340;52.004;5.908;2022-10-15T05:36:13;13.80;90.70
42037;DHT22;30340;52.004;5.908;2022-10-15T05:38:45;13.80;90.70
42037;DHT22;30340;52.004;5.908;2022-10-15T05:41:10;13.90;90.70
42037;DHT22;30340;52.004;5.908;2022-10-15T05:43:36;13.90;90.70
42037;DHT22;30340;52.004;5.908;2022-10-15T05:46:02;13.90;90.70
42037;DHT22;30340;52.004;5.908;2022-10-15T05:48:27;13.90;90.70
42037;DHT22;30340;52.004;5.908;2022-10-15T05:50:56;13.90;90.80
42037;DHT22;30340;52.004;5.908;2022-10-15T05:53:24;13.90;90.80
42037;DHT22;30340;52.004;5.908;2022-10-15T05:55:52;13.80;90.80
42037;DHT22;30340;52.004;5.908;2022-10-15T05:58:17;13.90;90.90
42037;DHT22;30340;52.004;5.908;2022-10-15T06:00:43;13.90;90.90
42037;DHT22;30340;52.004;5.908;2022-10-15T06:03:13;13.90;90.90
42037;DHT22;30340;52.004;5.908;2022-10-15T06:05:39;13.80;90.90
42037;DHT22;30340;52.004;5.908;2022-10-15T06:08:04;13.90;91.10
42037;DHT22;30340;52.004;5.908;2022-10-15T06:10:30;13.90;91.10
42037;DHT22;30340;52.004;5.908;2022-10-15T06:12:59;13.90;91.10
42037;DHT22;30340;52.004;5.908;2022-10-15T06:15:24;13.90;91.10
42037;DHT22;30340;52.004;5.908;2022-10-15T06:17:52;13.90;91.10
42037;DHT22;30340;52.004;5.908;2022-10-15T06:20:21;13.90;91.10
42037;DHT22;30340;52.004;5.908;2022-10-15T06:22:46;14.00;91.10
42037;DHT22;30340;52.004;5.908;2022-10-15T06:25:12;13.90;91.20
42037;DHT22;30340;52.004;5.908;2022-10-15T06:27:38;13.90;91.30
42037;DHT22;30340;52.004;5.908;2022-10-15T06:30:04;13.90;91.40
42037;DHT22;30340;52.004;5.908;2022-10-15T06:32:30;13.90;91.50
42037;DHT22;30340;52.004;5.908;2022-10-15T06:34:56;13.90;91.60
42037;DHT22;30340;52.004;5.908;2022-10-15T06:37:22;14.00;91.60
42037;DHT22;30340;52.004;5.908;2022-10-15T06:39:47;14.00;91.60
42037;DHT22;30340;52.004;5.908;2022-10-15T06:42:13;14.00;91.60
42037;DHT22;30340;52.004;5.908;2022-10-15T06:44:39;14.00;91.60
42037;DHT22;30340;52.004;5.908;2022-10-15T06:47:05;14.00;91.60
42037;DHT22;30340;52.004;5.908;2022-10-15T06:49:30;14.00;91.80
42037;DHT22;30340;52.004;5.908;2022-10-15T06:51:57;14.00;91.80
42037;DHT22;30340;52.004;5.908;2022-10-15T06:54:23;14.00;91.70
42037;DHT22;30340;52.004;5.908;2022-10-15T06:56:49;14.10;91.80
42037;DHT22;30340;52.004;5.908;2022-10-15T06:59:15;14.10;91.80
42037;DHT22;30340;52.004;5.908;2022-10-15T07:01:41;14.10;91.80
42037;DHT22;30340;52.004;5.908;2022-10-15T07:04:06;14.10;91.90
42037;DHT22;30340;52.004;5.908;2022-10-15T07:06:34;14.10;91.90
42037;DHT22;30340;52.004;5.908;2022-10-15T07:09:03;14.10;91.80
42037;DHT22;30340;52.004;5.908;2022-10-15T07:11:30;14.20;91.90
42037;DHT22;30340;52.004;5.908;2022-10-15T07:13:55;14.20;91.90
42037;DHT22;30340;52.004;5.908;2022-10-15T07:16:22;14.20;92.00
42037;DHT22;30340;52.004;5.908;2022-10-15T07:18:48;14.20;91.90
42037;DHT22;30340;52.004;5.908;2022-10-15T07:21:13;14.30;91.90
42037;DHT22;30340;52.004;5.908;2022-10-15T07:23:39;14.30;91.80
42037;DHT22;30340;52.004;5.908;2022-10-15T07:26:04;14.40;91.80
42037;DHT22;30340;52.004;5.908;2022-10-15T07:28:30;14.40;91.80
42037;DHT22;30340;52.004;5.908;2022-10-15T07:31:00;14.40;91.70
42037;DHT22;30340;52.004;5.908;2022-10-15T07:33:26;14.40;91.70
42037;DHT22;30340;52.004;5.908;2022-10-15T07:35:51;14.50;92.00
42037;DHT22;30340;52.004;5.908;2022-10-15T07:38:17;14.50;91.70
42037;DHT22;30340;52.004;5.908;2022-10-15T07:40:43;14.50;91.60
42037;DHT22;30340;52.004;5.908;2022-10-15T07:43:09;14.60;91.60
42037;DHT22;30340;52.004;5.908;2022-10-15T07:45:35;14.60;91.60
42037;DHT22;30340;52.004;5.908;2022-10-15T07:48:00;14.60;91.50
42037;DHT22;30340;52.004;5.908;2022-10-15T07:50:26;14.70;91.50
42037;DHT22;30340;52.004;5.908;2022-10-15T07:52:52;14.70;91.50
42037;DHT22;30340;52.004;5.908;2022-10-15T07:55:17;14.70;91.50
42037;DHT22;30340;52.004;5.908;2022-10-15T07:57:43;14.70;91.50
42037;DHT22;30340;52.004;5.908;2022-10-15T08:00:09;14.70;91.40
42037;DHT22;30340;52.004;5.908;2022-10-15T08:02:35;14.70;91.50
42037;DHT22;30340;52.004;5.908;2022-10-15T08:05:00;14.70;91.50
42037;DHT22;30340;52.004;5.908;2022-10-15T08:07:26;14.70;91.50
42037;DHT22;30340;52.004;5.908;2022-10-15T08:09:51;14.70;91.50
42037;DHT22;30340;52.004;5.908;2022-10-15T08:12:17;14.70;91.40
42037;DHT22;30340;52.004;5.908;2022-10-15T08:14:42;14.80;91.40
42037;DHT22;30340;52.004;5.908;2022-10-15T08:17:08;14.80;91.40
42037;DHT22;30340;52.004;5.908;2022-10-15T08:19:34;14.90;91.40
42037;DHT22;30340;52.004;5.908;2022-10-15T08:21:59;14.90;91.30
42037;DHT22;30340;52.004;5.908;2022-10-15T08:24:25;15.00;91.30
42037;DHT22;30340;52.004;5.908;2022-10-15T08:26:51;15.10;91.30
42037;DHT22;30340;52.004;5.908;2022-10-15T08:29:16;15.10;91.20
42037;DHT22;30340;52.004;5.908;2022-10-15T08:31:42;15.20;91.00
42037;DHT22;30340;52.004;5.908;2022-10-15T08:34:07;15.20;91.00
42037;DHT22;30340;52.004;5.908;2022-10-15T08:36:33;15.30;91.00
42037;DHT22;30340;52.004;5.908;2022-10-15T08:38:59;15.40;90.90
42037;DHT22;30340;52.004;5.908;2022-10-15T08:41:32;15.50;90.80
42037;DHT22;30340;52.004;5.908;2022-10-15T08:44:00;15.70;90.60
42037;DHT22;30340;52.004;5.908;2022-10-15T08:46:34;15.70;90.40
42037;DHT22;30340;52.004;5.908;2022-10-15T08:49:03;15.70;90.50
42037;DHT22;30340;52.004;5.908;2022-10-15T08:51:44;15.70;90.40
42037;DHT22;30340;52.004;5.908;2022-10-15T08:54:15;15.80;90.40
42037;DHT22;30340;52.004;5.908;2022-10-15T08:56:48;15.70;90.50
42037;DHT22;30340;52.004;5.908;2022-10-15T08:59:33;15.70;90.30
42037;DHT22;30340;52.004;5.908;2022-10-15T09:02:12;15.60;90.20
42037;DHT22;30340;52.004;5.908;2022-10-15T09:05:14;15.70;90.30
42037;DHT22;30340;52.004;5.908;2022-10-15T09:10:38;15.90;90.20
42037;DHT22;30340;52.004;5.908;2022-10-15T09:13:13;15.90;90.00
42037;DHT22;30340;52.004;5.908;2022-10-15T09:15:46;15.90;89.90
42037;DHT22;30340;52.004;5.908;2022-10-15T09:18:21;15.90;89.90
42037;DHT22;30340;52.004;5.908;2022-10-15T09:20:47;15.90;89.90
42037;DHT22;30340;52.004;5.908;2022-10-15T09:23:18;16.00;89.70
42037;DHT22;30340;52.004;5.908;2022-10-15T09:25:47;16.00;89.60
42037;DHT22;30340;52.004;5.908;2022-10-15T09:28:16;16.10;89.70
42037;DHT22;30340;52.004;5.908;2022-10-15T09:30:53;16.20;89.60
42037;DHT22;30340;52.004;5.908;2022-10-15T09:44:35;16.10;89.20
42037;DHT22;30340;52.004;5.908;2022-10-15T09:47:19;16.20;89.20
42037;DHT22;30340;52.004;5.908;2022-10-15T09:49:47;16.20;89.20
42037;DHT22;30340;52.004;5.908;2022-10-15T09:57:53;16.30;88.70
42037;DHT22;30340;52.004;5.908;2022-10-15T10:00:20;16.40;89.40
42037;DHT22;30340;52.004;5.908;2022-10-15T10:03:06;16.50;88.60
42037;DHT22;30340;52.004;5.908;2022-10-15T10:05:35;16.40;88.40
42037;DHT22;30340;52.004;5.908;2022-10-15T10:08:10;16.40;88.30
42037;DHT22;30340;52.004;5.908;2022-10-15T10:10:41;16.30;88.10
42037;DHT22;30340;52.004;5.908;2022-10-15T10:13:21;16.30;88.30
42037;DHT22;30340;52.004;5.908;2022-10-15T10:15:48;16.20;88.50
42037;DHT22;30340;52.004;5.908;2022-10-15T10:18:21;16.10;89.00
42037;DHT22;30340;52.004;5.908;2022-10-15T10:20:55;16.20;89.60
42037;DHT22;30340;52.004;5.908;2022-10-15T10:23:36;16.30;89.80
42037;DHT22;30340;52.004;5.908;2022-10-15T10:26:05;16.30;89.60
42037;DHT22;30340;52.004;5.908;2022-10-15T10:28:35;16.30;89.60
42037;DHT22;30340;52.004;5.908;2022-10-15T10:31:06;16.30;89.70
42037;DHT22;30340;52.004;5.908;2022-10-15T10:33:42;16.30;89.70
42037;DHT22;30340;52.004;5.908;2022-10-15T10:39:24;16.30;89.80
42037;DHT22;30340;52.004;5.908;2022-10-15T10:44:39;16.30;90.00
42037;DHT22;30340;52.004;5.908;2022-10-15T10:49:36;16.20;90.30
42037;DHT22;30340;52.004;5.908;2022-10-15T10:52:03;16.20;90.40
42037;DHT22;30340;52.004;5.908;2022-10-15T10:54:31;16.20;90.50
42037;DHT22;30340;52.004;5.908;2022-10-15T10:56:58;16.20;90.60
42037;DHT22;30340;52.004;5.908;2022-10-15T10:59:39;16.20;90.60
42037;DHT22;30340;52.004;5.908;2022-10-15T11:02:10;16.20;90.60
42037;DHT22;30340;52.004;5.908;2022-10-15T11:04:37;16.20;90.50
42037;DHT22;30340;52.004;5.908;2022-10-15T11:07:34;16.30;90.60
42037;DHT22;30340;52.004;5.908;2022-10-15T11:10:26;16.20;90.60
42037;DHT22;30340;52.004;5.908;2022-10-15T11:13:25;16.20;90.80
42037;DHT22;30340;52.004;5.908;2022-10-15T11:16:00;16.20;90.90
42037;DHT22;30340;52.004;5.908;2022-10-15T11:24:42;16.10;91.00
42037;DHT22;30340;52.004;5.908;2022-10-15T11:27:19;16.10;91.20
42037;DHT22;30340;52.004;5.908;2022-10-15T11:38:59;16.10;91.70
42037;DHT22;30340;52.004;5.908;2022-10-15T11:41:46;16.10;91.70
42037;DHT22;30340;52.004;5.908;2022-10-15T11:44:46;16.10;91.70
42037;DHT22;30340;52.004;5.908;2022-10-15T11:47:26;16.10;91.80
42037;DHT22;30340;52.004;5.908;2022-10-15T11:50:02;16.10;91.80
42037;DHT22;30340;52.004;5.908;2022-10-15T11:55:43;16.10;92.10
42037;DHT22;30340;52.004;5.908;2022-10-15T11:58:27;16.10;92.20
42037;DHT22;30340;52.004;5.908;2022-10-15T12:00:57;16.20;92.20
42037;DHT22;30340;52.004;5.908;2022-10-15T12:03:26;16.30;92.20
42037;DHT22;30340;52.004;5.908;2022-10-15T12:06:00;16.30;92.20
42037;DHT22;30340;52.004;5.908;2022-10-15T12:08:32;16.30;92.20
42037;DHT22;30340;52.004;5.908;2022-10-15T12:11:03;16.40;92.20
42037;DHT22;30340;52.004;5.908;2022-10-15T12:13:52;16.30;92.30
42037;DHT22;30340;52.004;5.908;2022-10-15T12:16:25;16.30;92.40
42037;DHT22;30340;52.004;5.908;2022-10-15T12:22:30;16.40;92.40
42037;DHT22;30340;52.004;5.908;2022-10-15T12:27:25;16.40;92.50
42037;DHT22;30340;52.004;5.908;2022-10-15T12:32:29;16.40;92.70
42037;DHT22;30340;52.004;5.908;2022-10-15T12:35:00;16.40;92.80
42037;DHT22;30340;52.004;5.908;2022-10-15T12:37:28;16.50;92.90
42037;DHT22;30340;52.004;5.908;2022-10-15T12:39:58;16.50;92.90
42037;DHT22;30340;52.004;5.908;2022-10-15T12:45:00;16.60;92.90
42037;DHT22;30340;52.004;5.908;2022-10-15T12:48:11;16.70;92.90
42037;DHT22;30340;52.004;5.908;2022-10-15T12:50:37;16.60;93.00
42037;DHT22;30340;52.004;5.908;2022-10-15T12:53:03;16.70;93.00
42037;DHT22;30340;52.004;5.908;2022-10-15T12:55:33;16.80;92.90
42037;DHT22;30340;52.004;5.908;2022-10-15T13:00:50;16.90;92.80
42037;DHT22;30340;52.004;5.908;2022-10-15T13:03:43;16.90;92.80
42037;DHT22;30340;52.004;5.908;2022-10-15T13:08:50;17.00;92.90
42037;DHT22;30340;52.004;5.908;2022-10-15T13:11:24;17.00;92.90
42037;DHT22;30340;52.004;5.908;2022-10-15T13:13:55;17.10;92.90
42037;DHT22;30340;52.004;5.908;2022-10-15T13:16:22;17.20;92.70
42037;DHT22;30340;52.004;5.908;2022-10-15T13:18:52;17.20;92.80
42037;DHT22;30340;52.004;5.908;2022-10-15T13:21:20;17.20;92.80
42037;DHT22;30340;52.004;5.908;2022-10-15T13:23:48;17.30;92.80
42037;DHT22;30340;52.004;5.908;2022-10-15T13:26:23;17.40;92.80
42037;DHT22;30340;52.004;5.908;2022-10-15T13:28:52;17.40;92.70
42037;DHT22;30340;52.004;5.908;2022-10-15T13:31:28;17.50;92.70
42037;DHT22;30340;52.004;5.908;2022-10-15T13:33:58;17.60;92.60
42037;DHT22;30340;52.004;5.908;2022-10-15T13:36:29;17.60;92.50
42037;DHT22;30340;52.004;5.908;2022-10-15T13:39:07;17.60;92.40
42037;DHT22;30340;52.004;5.908;2022-10-15T13:41:38;17.60;92.40
42037;DHT22;30340;52.004;5.908;2022-10-15T13:44:19;17.60;92.30
42037;DHT22;30340;52.004;5.908;2022-10-15T13:46:45;17.70;92.40
42037;DHT22;30340;52.004;5.908;2022-10-15T13:49:11;17.70;92.30
42037;DHT22;30340;52.004;5.908;2022-10-15T13:51:41;17.70;92.30
42037;DHT22;30340;52.004;5.908;2022-10-15T13:54:10;17.70;92.40
42037;DHT22;30340;52.004;5.908;2022-10-15T13:56:41;17.70;92.30
42037;DHT22;30340;52.004;5.908;2022-10-15T13:59:14;17.70;92.30
42037;DHT22;30340;52.004;5.908;2022-10-15T14:01:45;17.80;92.30
42037;DHT22;30340;52.004;5.908;2022-10-15T14:04:17;17.80;92.20
42037;DHT22;30340;52.004;5.908;2022-10-15T14:06:55;17.80;92.20
42037;DHT22;30340;52.004;5.908;2022-10-15T14:09:28;17.80;92.10
42037;DHT22;30340;52.004;5.908;2022-10-15T14:11:55;17.80;92.10
42037;DHT22;30340;52.004;5.908;2022-10-15T14:16:58;17.60;92.10
42037;DHT22;30340;52.004;5.908;2022-10-15T14:19:25;17.60;92.00
42037;DHT22;30340;52.004;5.908;2022-10-15T14:21:55;17.60;92.00
42037;DHT22;30340;52.004;5.908;2022-10-15T14:24:22;17.50;92.00
42037;DHT22;30340;52.004;5.908;2022-10-15T14:26:49;17.50;92.00
42037;DHT22;30340;52.004;5.908;2022-10-15T14:29:24;17.40;91.90
42037;DHT22;30340;52.004;5.908;2022-10-15T14:31:51;17.40;91.80
42037;DHT22;30340;52.004;5.908;2022-10-15T14:36:53;17.30;91.90
42037;DHT22;30340;52.004;5.908;2022-10-15T14:39:46;17.30;91.80
42037;DHT22;30340;52.004;5.908;2022-10-15T14:42:30;17.30;91.80
42037;DHT22;30340;52.004;5.908;2022-10-15T14:47:38;17.40;91.70
42037;DHT22;30340;52.004;5.908;2022-10-15T14:50:04;17.40;91.60
42037;DHT22;30340;52.004;5.908;2022-10-15T14:52:30;17.50;91.50
42037;DHT22;30340;52.004;5.908;2022-10-15T14:57:34;17.50;91.30
42037;DHT22;30340;52.004;5.908;2022-10-15T15:00:01;17.60;91.30
42037;DHT22;30340;52.004;5.908;2022-10-15T15:02:28;17.50;91.20
42037;DHT22;30340;52.004;5.908;2022-10-15T15:05:18;17.60;91.20
42037;DHT22;30340;52.004;5.908;2022-10-15T15:07:44;17.50;91.10
42037;DHT22;30340;52.004;5.908;2022-10-15T15:10:10;17.50;91.10
42037;DHT22;30340;52.004;5.908;2022-10-15T15:12:37;17.40;91.10
42037;DHT22;30340;52.004;5.908;2022-10-15T15:15:12;17.40;91.10
42037;DHT22;30340;52.004;5.908;2022-10-15T15:17:38;17.30;91.20
42037;DHT22;30340;52.004;5.908;2022-10-15T15:20:04;17.30;91.10
42037;DHT22;30340;52.004;5.908;2022-10-15T15:22:32;17.30;91.10
42037;DHT22;30340;52.004;5.908;2022-10-15T15:25:00;17.30;91.00
42037;DHT22;30340;52.004;5.908;2022-10-15T15:27:28;17.30;91.00
42037;DHT22;30340;52.004;5.908;2022-10-15T15:29:55;17.20;90.90
42037;DHT22;30340;52.004;5.908;2022-10-15T15:32:21;17.20;90.80
42037;DHT22;30340;52.004;5.908;2022-10-15T15:34:48;17.10;90.80
42037;DHT22;30340;52.004;5.908;2022-10-15T15:37:17;17.10;90.70
42037;DHT22;30340;52.004;5.908;2022-10-15T15:39:43;17.10;90.70
42037;DHT22;30340;52.004;5.908;2022-10-15T15:42:15;17.00;90.70
42037;DHT22;30340;52.004;5.908;2022-10-15T15:44:41;17.00;90.60
42037;DHT22;30340;52.004;5.908;2022-10-15T15:47:07;17.00;90.50
42037;DHT22;30340;52.004;5.908;2022-10-15T15:49:33;16.90;90.40
42037;DHT22;30340;52.004;5.908;2022-10-15T15:51:59;16.90;90.40
42037;DHT22;30340;52.004;5.908;2022-10-15T15:54:25;16.90;90.40
42037;DHT22;30340;52.004;5.908;2022-10-15T15:56:51;16.80;90.40
42037;DHT22;30340;52.004;5.908;2022-10-15T15:59:16;16.80;90.40
42037;DHT22;30340;52.004;5.908;2022-10-15T16:01:44;16.80;90.30
42037;DHT22;30340;52.004;5.908;2022-10-15T16:04:10;16.70;90.30
42037;DHT22;30340;52.004;5.908;2022-10-15T16:06:37;16.70;90.30
42037;DHT22;30340;52.004;5.908;2022-10-15T16:09:03;16.60;90.20
42037;DHT22;30340;52.004;5.908;2022-10-15T16:11:30;16.60;90.20
42037;DHT22;30340;52.004;5.908;2022-10-15T16:13:56;16.60;90.20
42037;DHT22;30340;52.004;5.908;2022-10-15T16:16:22;16.60;90.30
42037;DHT22;30340;52.004;5.908;2022-10-15T16:18:49;16.50;90.30
42037;DHT22;30340;52.004;5.908;2022-10-15T16:21:23;16.60;90.30
42037;DHT22;30340;52.004;5.908;2022-10-15T16:23:49;16.60;90.20
42037;DHT22;30340;52.004;5.908;2022-10-15T16:26:15;16.50;90.20
42037;DHT22;30340;52.004;5.908;2022-10-15T16:28:41;16.50;90.20
42037;DHT22;30340;52.004;5.908;2022-10-15T16:31:18;16.50;90.20
42037;DHT22;30340;52.004;5.908;2022-10-15T16:33:44;16.40;90.20
42037;DHT22;30340;52.004;5.908;2022-10-15T16:36:10;16.40;90.20
42037;DHT22;30340;52.004;5.908;2022-10-15T16:38:39;16.40;90.20
42037;DHT22;30340;52.004;5.908;2022-10-15T16:41:06;16.30;90.30
42037;DHT22;30340;52.004;5.908;2022-10-15T16:43:32;16.20;90.30
42037;DHT22;30340;52.004;5.908;2022-10-15T16:45:59;16.10;90.30
42037;DHT22;30340;52.004;5.908;2022-10-15T16:48:25;16.10;90.30
42037;DHT22;30340;52.004;5.908;2022-10-15T16:51:06;16.00;90.20
42037;DHT22;30340;52.004;5.908;2022-10-15T16:53:34;16.00;90.20
42037;DHT22;30340;52.004;5.908;2022-10-15T16:56:22;15.90;90.20
42037;DHT22;30340;52.004;5.908;2022-10-15T16:58:48;15.90;90.20
42037;DHT22;30340;52.004;5.908;2022-10-15T17:01:16;15.80;90.20
42037;DHT22;30340;52.004;5.908;2022-10-15T17:03:43;15.80;90.20
42037;DHT22;30340;52.004;5.908;2022-10-15T17:06:12;15.70;90.20
42037;DHT22;30340;52.004;5.908;2022-10-15T17:08:41;15.60;90.20
42037;DHT22;30340;52.004;5.908;2022-10-15T17:11:12;15.60;90.20
42037;DHT22;30340;52.004;5.908;2022-10-15T17:13:37;15.50;90.20
42037;DHT22;30340;52.004;5.908;2022-10-15T17:16:16;15.50;90.30
42037;DHT22;30340;52.004;5.908;2022-10-15T17:18:43;15.40;90.30